Time;durP1;ratioP1;P1;durP2;ratioP2;P2;SDS_P1;SDS_P2;PMS_P1;PMS_P2;Temp;Humidity;BMP_temperature;BMP_pressure;BME280_temperature;BME280_humidity;BME280_pressure;Samples;Min_cycle;Max_cycle;Signal;HPM_P1;HPM_P2
2021/12/30 00:00:28;;;;;;;2.50;2.40;;;7.50;99.50;;;7.34;70.67;94357.81;4990233;28;20487;-60
2021/12/30 00:02:56;;;;;;;3.20;3.00;;;7.50;99.10;;;7.33;70.88;94356.13;4990158;28;20830;-58
2021/12/30 00:05:24;;;;;;;7.07;3.00;;;7.50;99.20;;;7.32;70.94;94351.84;4991175;28;20483;-57
2021/12/30 00:07:52;;;;;;;3.03;2.80;;;7.50;99.20;;;7.32;70.73;94356.28;4989379;28;20458;-60
2021/12/30 00:10:19;;;;;;;3.70;2.47;;;7.50;99.10;;;7.30;70.85;94351.16;4988884;28;20470;-59
2021/12/30 00:12:47;;;;;;;4.60;2.67;;;7.50;99.10;;;7.29;70.56;94357.34;4987685;28;20525;-60
2021/12/30 00:15:14;;;;;;;3.23;2.93;;;7.40;99.10;;;7.29;70.66;94348.69;4987306;28;20494;-59
2021/12/30 00:17:42;;;;;;;2.53;2.37;;;7.40;99.10;;;7.29;70.70;94352.13;4985790;28;20955;-58
2021/12/30 00:20:10;;;;;;;2.50;2.30;;;7.40;99.10;;;7.31;71.17;94352.00;4988715;28;20482;-60
2021/12/30 00:22:41;;;;;;;2.27;2.03;;;7.40;99.10;;;7.31;71.14;94352.00;4986600;28;20465;-59
2021/12/30 00:25:09;;;;;;;2.83;2.60;;;7.40;99.10;;;7.32;70.67;94362.31;4986390;28;20478;-58
2021/12/30 00:27:36;;;;;;;2.00;1.90;;;7.50;99.10;;;7.30;70.73;94358.19;4987916;28;20474;-59
2021/12/30 00:30:04;;;;;;;2.87;2.77;;;7.50;99.10;;;7.30;70.98;94371.28;4988666;28;20501;-60
2021/12/30 00:32:31;;;;;;;2.27;2.17;;;7.40;99.10;;;7.30;70.82;94371.28;4988205;28;20836;-58
2021/12/30 00:34:59;;;;;;;2.33;2.23;;;7.40;99.10;;;7.29;70.87;94372.22;4989085;28;20498;-59
2021/12/30 00:37:26;;;;;;;2.23;2.03;;;7.40;99.10;;;7.30;70.66;94373.91;4987302;28;20450;-58
2021/12/30 00:39:55;;;;;;;2.90;2.67;;;7.40;99.10;;;7.29;70.58;94375.66;4988840;28;20478;-59
2021/12/30 00:42:22;;;;;;;2.20;2.10;;;7.40;99.10;;;7.27;70.63;94376.78;4988778;28;20455;-60
2021/12/30 00:44:49;;;;;;;2.30;2.20;;;7.40;98.90;;;7.25;70.77;94384.75;4987178;28;21032;-58
2021/12/30 00:47:17;;;;;;;5.00;2.43;;;7.40;98.90;;;7.23;71.01;94381.41;4986932;28;20466;-60
2021/12/30 00:49:44;;;;;;;2.63;2.43;;;7.40;99.00;;;7.24;70.16;94384.88;4988671;28;20522;-59
2021/12/30 00:52:11;;;;;;;2.10;2.00;;;7.40;99.10;;;7.21;70.19;94388.59;4988348;28;20983;-59
2021/12/30 00:54:39;;;;;;;2.80;2.60;;;7.30;98.80;;;7.18;70.72;94381.81;4986999;28;20556;-59
2021/12/30 00:57:07;;;;;;;2.73;2.53;;;7.30;98.80;;;7.17;70.84;94385.41;4988668;28;20455;-59
2021/12/30 00:59:35;;;;;;;2.67;2.40;;;7.30;99.00;;;7.17;70.36;94385.41;4987457;28;20457;-60
2021/12/30 01:02:02;;;;;;;2.97;2.77;;;7.30;99.00;;;7.17;70.89;94393.25;4988911;28;20647;-60
2021/12/30 01:04:29;;;;;;;2.70;2.50;;;7.30;99.10;;;7.18;70.50;94397.50;4987041;28;20465;-58
2021/12/30 01:06:56;;;;;;;2.53;2.33;;;7.30;99.10;;;7.17;70.67;94393.25;4988784;28;21064;-58
2021/12/30 01:09:24;;;;;;;3.63;2.77;;;7.30;99.10;;;7.16;70.79;94402.06;4988966;28;20458;-60
2021/12/30 01:11:52;;;;;;;2.40;2.30;;;7.30;99.10;;;7.16;70.67;94402.06;4988372;28;20823;-59
2021/12/30 01:14:24;;;;;;;2.60;2.40;;;7.30;99.10;;;7.17;71.09;94402.88;4988907;28;20500;-60
2021/12/30 01:16:56;;;;;;;2.70;2.50;;;7.30;99.10;;;7.17;71.15;94398.50;4989161;28;20608;-57
2021/12/30 01:19:42;;;;;;;2.30;2.10;;;7.30;99.10;;;7.20;70.38;94407.03;4989216;28;20777;-59
2021/12/30 01:22:10;;;;;;;2.00;1.90;;;7.30;99.10;;;7.20;71.22;94407.03;4986374;28;21042;-60
2021/12/30 01:24:37;;;;;;;3.50;2.30;;;7.30;99.00;;;7.20;70.11;94407.84;4987770;28;20925;-60
2021/12/30 01:27:05;;;;;;;2.00;1.90;;;7.30;99.00;;;7.18;70.94;94404.53;4986894;28;21142;-58
2021/12/30 01:29:33;;;;;;;2.17;2.07;;;7.30;99.00;;;7.17;70.14;94408.09;4984003;28;20455;-62
2021/12/30 01:32:01;;;;;;;2.20;2.10;;;7.30;99.10;;;7.17;70.43;94402.88;4987425;28;21001;-58
2021/12/30 01:34:28;;;;;;;2.73;2.53;;;7.30;99.00;;;7.17;70.94;94408.09;4985100;28;20485;-59
2021/12/30 01:36:55;;;;;;;2.60;2.40;;;7.30;99.10;;;7.16;70.47;94409.91;4989812;28;20463;-58
2021/12/30 01:39:23;;;;;;;2.33;2.23;;;7.30;99.40;;;7.17;71.12;94410.72;4991283;28;20466;-58
2021/12/30 01:41:50;;;;;;;2.57;2.37;;;7.30;99.10;;;7.14;70.64;94409.22;4992674;28;20450;-57
2021/12/30 01:44:17;;;;;;;2.47;2.30;;;7.30;99.10;;;7.15;70.53;94415.25;4993089;28;20497;-60
2021/12/30 01:46:46;;;;;;;2.37;2.23;;;7.30;99.10;;;7.13;70.51;94412.78;4991578;28;20461;-59
2021/12/30 01:49:14;;;;;;;2.53;2.37;;;7.30;99.10;;;7.12;70.86;94416.34;4992020;28;20473;-60
2021/12/30 01:51:42;;;;;;;3.43;3.13;;;7.30;99.10;;;7.13;70.65;94415.38;4991793;28;20495;-58
2021/12/30 01:54:09;;;;;;;3.23;2.63;;;7.30;99.10;;;7.14;70.74;94414.44;4992849;28;20808;-59
2021/12/30 01:56:37;;;;;;;2.63;2.43;;;7.30;99.10;;;7.16;70.71;94417.75;4991135;28;20466;-59
2021/12/30 01:59:04;;;;;;;1.93;1.80;;;7.30;99.10;;;7.15;70.86;94416.06;4990197;28;20540;-61
2021/12/30 02:01:32;;;;;;;2.07;1.97;;;7.30;99.10;;;7.15;71.04;94415.25;4998744;28;20493;-57
2021/12/30 02:04:01;;;;;;;2.27;2.17;;;7.30;99.10;;;7.16;70.63;94422.97;4994981;28;20787;-58
2021/12/30 02:06:28;;;;;;;2.03;1.90;;;7.30;99.10;;;7.17;70.56;94419.41;4992461;28;20486;-60
2021/12/30 02:08:55;;;;;;;2.10;1.93;;;7.30;99.10;;;7.20;70.94;94422.72;4990022;28;20459;-60
2021/12/30 02:11:24;;;;;;;2.47;2.30;;;7.30;99.10;;;7.20;70.22;94417.47;4992597;28;20471;-59
2021/12/30 02:13:59;;;;;;;2.27;2.07;;;7.30;99.00;;;7.20;70.81;94422.72;4992637;28;20545;-58
2021/12/30 02:16:27;;;;;;;1.90;1.80;;;7.30;99.00;;;7.21;70.71;94419.16;4989236;28;20495;-58
2021/12/30 02:18:54;;;;;;;2.03;1.93;;;7.40;99.10;;;7.22;70.32;94420.78;4988677;28;20458;-58
2021/12/30 02:21:23;;;;;;;2.10;2.00;;;7.40;99.10;;;7.20;71.12;94415.69;4987305;28;20478;-58
2021/12/30 02:23:50;;;;;;;2.40;1.70;;;7.40;99.00;;;7.20;70.67;94426.16;4989414;28;20544;-58
2021/12/30 02:26:20;;;;;;;2.23;2.13;;;7.30;98.90;;;7.20;70.09;94420.09;4987026;28;20465;-60
2021/12/30 02:28:47;;;;;;;1.80;1.70;;;7.30;99.00;;;7.19;70.60;94419.28;4990852;28;20459;-60
2021/12/30 02:31:18;;;;;;;2.30;2.10;;;7.30;98.90;;;7.16;70.52;94425.59;4989920;28;20524;-59
2021/12/30 02:33:45;;;;;;;1.80;1.70;;;7.30;98.80;;;7.16;70.32;94433.44;4989808;28;20449;-59
2021/12/30 02:36:13;;;;;;;1.57;1.47;;;7.30;98.90;;;7.16;70.66;94430.81;4989018;28;20524;-57
2021/12/30 02:38:45;;;;;;;1.37;1.27;;;7.30;99.00;;;7.18;70.91;94428.06;4986945;28;20542;-59
2021/12/30 02:41:15;;;;;;;3.13;1.73;;;7.30;99.10;;;7.16;70.46;94427.38;4984740;28;20479;-58
2021/12/30 02:43:42;;;;;;;1.70;1.60;;;7.30;99.00;;;7.15;70.77;94431.75;4991006;28;20443;-60
2021/12/30 02:46:10;;;;;;;1.40;1.30;;;7.30;98.90;;;7.16;70.54;94435.22;4989744;28;20484;-61
2021/12/30 02:48:38;;;;;;;2.20;1.83;;;7.30;99.10;;;7.16;71.00;94440.47;4992089;28;20521;-58
2021/12/30 02:51:08;;;;;;;1.57;1.47;;;7.30;99.10;;;7.15;70.85;94447.47;4988911;28;20477;-57
2021/12/30 02:53:35;;;;;;;1.10;1.00;;;7.30;99.00;;;7.15;70.33;94452.69;4989505;28;20950;-63
2021/12/30 02:56:04;;;;;;;1.50;1.40;;;7.30;99.10;;;7.16;70.33;94443.91;4989977;28;20971;-59
2021/12/30 02:58:32;;;;;;;2.33;1.60;;;7.30;99.10;;;7.17;70.73;94449.94;4989057;28;20565;-59
2021/12/30 03:01:03;;;;;;;1.53;1.43;;;7.30;99.10;;;7.18;70.99;94451.63;4989206;28;20474;-59
2021/12/30 03:03:31;;;;;;;1.77;1.60;;;7.30;99.10;;;7.17;71.08;94465.63;4990189;28;20455;-58
2021/12/30 03:05:59;;;;;;;1.70;1.60;;;7.30;99.10;;;7.17;70.91;94450.78;4990310;28;20491;-59
2021/12/30 03:08:26;;;;;;;3.27;1.77;;;7.30;99.10;;;7.18;70.76;94456.84;4988424;28;20462;-58
2021/12/30 03:10:54;;;;;;;2.03;1.60;;;7.30;99.10;;;7.20;71.02;94464.56;4990999;28;20483;-60
2021/12/30 03:13:30;;;;;;;2.07;1.47;;;7.30;99.10;;;7.20;70.33;94459.34;4991122;28;20454;-57
2021/12/30 03:15:59;;;;;;;1.97;1.77;;;7.30;99.10;;;7.20;71.01;94464.56;4988836;28;20585;-58
2021/12/30 03:18:27;;;;;;;1.90;1.80;;;7.30;99.10;;;7.21;70.90;94471.47;4990786;28;20553;-58
2021/12/30 03:20:54;;;;;;;1.23;1.13;;;7.30;99.10;;;7.23;71.08;94477.38;4991346;28;20474;-60
2021/12/30 03:23:21;;;;;;;1.70;1.60;;;7.40;99.10;;;7.24;70.69;94476.44;4990559;28;20447;-59
2021/12/30 03:25:48;;;;;;;2.10;2.00;;;7.40;99.10;;;7.24;70.39;94479.06;4988863;28;20475;-59
2021/12/30 03:28:16;;;;;;;3.40;1.80;;;7.40;98.90;;;7.22;70.32;94479.19;4991297;28;20451;-59
2021/12/30 03:30:44;;;;;;;2.70;1.93;;;7.40;98.90;;;7.22;70.39;94471.34;4989464;28;20478;-60
2021/12/30 03:33:12;;;;;;;1.93;1.80;;;7.40;98.90;;;7.23;70.95;94480.81;4990655;28;20455;-59
2021/12/30 03:35:39;;;;;;;1.80;1.70;;;7.40;99.00;;;7.25;70.89;94480.69;4988499;28;20510;-61
2021/12/30 03:38:06;;;;;;;2.00;1.90;;;7.40;99.00;;;7.24;70.61;94487.72;4991064;28;20455;-58
2021/12/30 03:40:34;;;;;;;2.60;2.00;;;7.40;98.90;;;7.26;70.54;94479.75;4990278;28;20478;-59
2021/12/30 03:43:01;;;;;;;2.43;2.07;;;7.40;99.00;;;7.25;70.06;94480.69;4988610;28;20978;-60
2021/12/30 03:45:29;;;;;;;2.80;1.70;;;7.40;98.80;;;7.26;70.64;94487.59;4990767;28;20489;-58
2021/12/30 03:47:57;;;;;;;2.83;2.50;;;7.40;98.80;;;7.26;70.67;94484.97;4990042;28;20451;-59
2021/12/30 03:50:28;;;;;;;2.83;1.77;;;7.40;98.80;;;7.26;70.33;94484.97;4990853;28;20480;-59
2021/12/30 03:53:01;;;;;;;2.13;1.93;;;7.40;98.80;;;7.26;71.02;94490.19;4990691;28;20446;-58
2021/12/30 03:55:29;;;;;;;3.10;2.10;;;7.40;98.80;;;7.26;70.27;94492.81;4987893;28;20505;-58
2021/12/30 03:57:56;;;;;;;2.10;2.00;;;7.40;98.80;;;7.28;70.35;94498.75;4990337;28;20850;-59
2021/12/30 04:00:25;;;;;;;8.83;2.00;;;7.40;98.90;;;7.28;70.25;94509.19;4989325;28;20593;-58
2021/12/30 04:02:52;;;;;;;2.13;1.90;;;7.40;98.80;;;7.28;70.59;94504.81;4989491;28;20537;-59
2021/12/30 04:05:21;;;;;;;2.20;2.00;;;7.40;98.80;;;7.30;70.36;94507.31;4989571;28;20471;-59
2021/12/30 04:07:48;;;;;;;2.90;2.70;;;7.50;98.80;;;7.29;70.65;94518.72;4988450;28;20469;-57
2021/12/30 04:10:17;;;;;;;2.70;1.87;;;7.40;98.70;;;7.28;69.98;94514.44;4989554;28;20489;-59
2021/12/30 04:12:45;;;;;;;2.40;2.30;;;7.40;98.70;;;7.27;70.27;94524.06;4990233;28;20478;-59
2021/12/30 04:15:13;;;;;;;2.53;2.33;;;7.40;98.70;;;7.28;70.41;94519.66;4989907;28;20470;-60
2021/12/30 04:17:40;;;;;;;2.93;2.73;;;7.40;98.80;;;7.28;70.65;94525.75;4989469;28;20554;-59
2021/12/30 04:20:09;;;;;;;2.57;2.33;;;7.40;98.80;;;7.29;70.22;94537.03;4990284;28;20482;-60
2021/12/30 04:22:38;;;;;;;2.47;2.27;;;7.40;98.80;;;7.29;70.58;94537.03;4989986;28;20477;-59
2021/12/30 04:25:08;;;;;;;3.60;2.57;;;7.40;98.70;;;7.29;70.71;94548.31;4989714;28;20478;-58
2021/12/30 04:27:36;;;;;;;2.50;2.30;;;7.40;98.70;;;7.30;70.69;94549.97;4988882;28;20462;-59
2021/12/30 04:30:04;;;;;;;2.57;2.27;;;7.40;98.70;;;7.30;69.93;94559.63;4990233;28;20481;-59
2021/12/30 04:32:32;;;;;;;3.10;2.90;;;7.50;98.70;;;7.30;70.16;94560.44;4989448;28;20458;-60
2021/12/30 04:34:59;;;;;;;2.00;1.90;;;7.40;98.60;;;7.29;70.56;94560.56;4987134;28;20474;-60
2021/12/30 04:37:27;;;;;;;3.83;2.83;;;7.40;98.50;;;7.29;70.62;94568.41;4989171;28;20545;-59
2021/12/30 04:39:55;;;;;;;2.50;2.30;;;7.40;98.60;;;7.31;70.49;94571.72;4988766;28;20572;-59
2021/12/30 04:42:23;;;;;;;1.70;1.60;;;7.40;98.60;;;7.32;70.00;94565.56;4989303;28;20542;-59
2021/12/30 04:44:50;;;;;;;2.80;2.23;;;7.50;98.60;;;7.33;70.10;94569.84;4986922;28;20470;-60
2021/12/30 04:47:19;;;;;;;2.80;1.90;;;7.50;98.50;;;7.33;70.14;94569.84;4988655;28;20999;-61
2021/12/30 04:49:46;;;;;;;2.23;2.13;;;7.50;98.50;;;7.34;69.59;94574.94;4988242;28;20545;-58
2021/12/30 04:52:14;;;;;;;2.63;2.43;;;7.50;98.50;;;7.33;69.67;94573.28;4988471;28;20454;-58
2021/12/30 04:54:41;;;;;;;2.47;2.27;;;7.50;98.20;;;7.30;69.24;94581.38;4987313;28;20525;-60
2021/12/30 04:57:09;;;;;;;2.30;2.10;;;7.50;98.10;;;7.25;69.80;94585.31;4989171;28;20537;-60
2021/12/30 04:59:37;;;;;;;2.90;2.70;;;7.40;98.10;;;7.18;69.57;94598.91;4988614;28;20990;-58
2021/12/30 05:02:04;;;;;;;2.10;2.00;;;7.30;98.00;;;7.10;69.55;94603.94;4986447;28;20982;-59
2021/12/30 05:04:32;;;;;;;2.87;2.60;;;7.20;98.00;;;7.04;69.99;94606.22;4987675;28;20466;-59
2021/12/30 05:06:59;;;;;;;2.20;2.10;;;7.20;98.10;;;6.98;70.16;94615.38;4988669;28;20462;-58
2021/12/30 05:09:26;;;;;;;6.03;2.57;;;7.10;98.20;;;6.94;69.54;94616.59;4987572;28;20451;-61
2021/12/30 05:11:53;;;;;;;2.80;2.40;;;7.10;98.20;;;6.91;70.29;94611.59;4987887;28;20451;-58
2021/12/30 05:14:23;;;;;;;2.60;2.40;;;7.00;98.30;;;6.89;70.41;94614.34;4987622;28;20458;-60
2021/12/30 05:16:52;;;;;;;2.60;2.40;;;7.00;98.40;;;6.91;69.94;94619.44;4988773;28;20919;-61
2021/12/30 05:19:19;;;;;;;2.53;2.33;;;7.00;98.50;;;6.90;69.76;94612.56;4989764;28;21513;-59
2021/12/30 05:21:46;;;;;;;3.47;2.93;;;7.00;98.40;;;6.87;70.20;94612.81;4988144;28;20457;-59
2021/12/30 05:24:15;;;;;;;2.70;2.40;;;7.00;98.40;;;6.87;69.88;94621.50;4987790;28;20462;-58
2021/12/30 05:26:42;;;;;;;2.80;2.60;;;7.00;98.40;;;6.88;69.73;94635.38;4988004;28;20470;-60
2021/12/30 05:29:10;;;;;;;4.00;2.40;;;7.00;98.40;;;6.89;69.79;94630.03;4987846;28;20840;-58
2021/12/30 05:31:38;;;;;;;4.43;2.97;;;7.00;98.30;;;6.90;69.57;94641.34;4987234;28;20481;-59
2021/12/30 05:34:06;;;;;;;6.90;2.87;;;7.00;98.30;;;6.90;69.87;94630.88;4987302;28;20490;-59
2021/12/30 05:36:33;;;;;;;3.63;3.30;;;7.00;98.30;;;6.91;69.85;94641.22;4987774;28;20497;-60
2021/12/30 05:39:00;;;;;;;3.20;2.97;;;7.00;98.30;;;6.92;69.45;94639.41;4987761;28;20849;-58
2021/12/30 05:41:29;;;;;;;2.77;2.50;;;7.10;98.30;;;6.92;70.22;94645.47;4987830;28;20818;-59
2021/12/30 05:43:58;;;;;;;5.97;3.20;;;7.10;98.40;;;6.94;70.18;94651.41;4985245;28;20553;-61
2021/12/30 05:46:27;;;;;;;3.20;3.00;;;7.10;98.40;;;6.97;70.12;94650.31;4987694;28;20890;-58
2021/12/30 05:48:56;;;;;;;2.70;2.50;;;7.10;98.40;;;6.99;70.04;94651.06;4987101;28;20517;-58
2021/12/30 05:51:23;;;;;;;5.93;3.00;;;7.10;98.40;;;7.03;70.45;94662.91;4987952;28;20485;-58
2021/12/30 05:53:50;;;;;;;3.17;2.93;;;7.20;98.40;;;7.06;69.81;94672.28;4988452;28;20501;-59
2021/12/30 05:56:17;;;;;;;3.20;2.87;;;7.20;98.40;;;7.08;69.86;94667.75;4987573;28;20490;-60
2021/12/30 05:58:45;;;;;;;2.50;2.30;;;7.20;98.30;;;7.09;69.92;94672.88;4987118;28;20450;-58
2021/12/30 06:01:12;;;;;;;3.30;2.80;;;7.20;98.20;;;7.10;69.50;94669.31;4986443;28;20549;-61
2021/12/30 06:03:40;;;;;;;3.60;2.40;;;7.20;98.20;;;7.08;69.68;94675.63;4987968;28;20455;-58
2021/12/30 06:06:09;;;;;;;2.77;2.60;;;7.20;98.10;;;7.11;69.80;94681.44;4988128;28;20494;-59
2021/12/30 06:08:37;;;;;;;2.77;2.50;;;7.30;98.00;;;7.12;69.46;94685.69;4989013;28;20553;-61
2021/12/30 06:11:04;;;;;;;2.90;2.70;;;7.30;98.00;;;7.12;69.23;94696.16;4989119;28;20481;-60
2021/12/30 06:13:31;;;;;;;3.13;2.93;;;7.30;98.00;;;7.11;69.06;94698.91;4988110;28;20509;-59
2021/12/30 06:15:59;;;;;;;6.60;5.83;;;7.30;98.00;;;7.10;68.97;94705.94;4987671;28;21027;-61
2021/12/30 06:18:26;;;;;;;8.37;6.40;;;7.30;97.80;;;7.09;69.00;94706.06;4987659;28;20928;-61
2021/12/30 06:20:53;;;;;;;6.97;5.87;;;7.30;97.70;;;7.09;69.51;94724.34;4987171;28;21049;-60
2021/12/30 06:23:22;;;;;;;4.87;3.80;;;7.20;97.60;;;7.07;68.64;94729.72;4991392;28;20556;-60
2021/12/30 06:25:49;;;;;;;5.47;3.03;;;7.20;97.30;;;7.03;68.14;94735.31;4991425;28;20533;-60
2021/12/30 06:28:17;;;;;;;6.90;3.17;;;7.20;96.80;;;6.97;67.33;94739.22;4992076;28;20497;-60
2021/12/30 06:30:44;;;;;;;4.67;2.67;;;7.10;96.40;;;6.93;67.77;94745.66;4991312;28;20478;-60
2021/12/30 06:33:11;;;;;;;3.67;3.00;;;7.10;96.70;;;6.93;67.24;94748.28;4989764;28;20813;-60
2021/12/30 06:35:39;;;;;;;2.63;2.43;;;7.10;96.40;;;6.91;67.24;94752.78;4991530;28;21851;-60
2021/12/30 06:38:06;;;;;;;3.63;2.83;;;7.10;96.40;;;6.88;67.12;94753.03;4991372;28;21003;-60
2021/12/30 06:40:35;;;;;;;4.63;3.10;;;7.00;96.30;;;6.87;67.08;94762.66;4991719;28;20478;-59
2021/12/30 06:43:02;;;;;;;2.40;2.20;;;7.00;96.30;;;6.86;67.18;94765.38;4991410;28;20462;-60
2021/12/30 06:45:29;;;;;;;3.47;3.17;;;7.00;96.20;;;6.84;67.79;94772.53;4988294;28;20712;-60
2021/12/30 06:47:57;;;;;;;6.60;3.27;;;7.00;96.30;;;6.84;67.19;94777.75;4989971;28;20493;-59
2021/12/30 06:50:27;;;;;;;6.40;3.60;;;7.00;96.20;;;6.81;67.40;94770.97;4992826;28;20478;-58
2021/12/30 06:52:54;;;;;;;7.50;3.77;;;7.00;96.00;;;6.75;66.51;94774.88;4992985;28;20525;-61
2021/12/30 06:55:21;;;;;;;6.13;3.90;;;6.90;95.80;;;6.67;67.05;94779.88;4991871;28;20470;-59
2021/12/30 06:57:50;;;;;;;5.27;3.30;;;6.80;95.90;;;6.60;66.70;94781.28;4991157;28;20498;-58
2021/12/30 07:00:17;;;;;;;5.63;3.30;;;6.80;95.70;;;6.53;66.50;94795.78;4988662;28;20564;-59
2021/12/30 07:02:45;;;;;;;5.07;3.07;;;6.80;95.30;;;6.49;66.63;94804.81;4988260;28;20531;-59
2021/12/30 07:05:13;;;;;;;4.63;3.20;;;6.70;95.30;;;6.48;66.83;94800.56;4990406;28;20474;-59
2021/12/30 07:07:40;;;;;;;3.50;2.90;;;6.70;95.70;;;6.46;65.96;94806.72;4986965;28;20490;-60
2021/12/30 07:10:09;;;;;;;4.40;2.40;;;6.60;95.40;;;6.44;66.49;94807.78;4989413;28;20471;-59
2021/12/30 07:12:37;;;;;;;2.07;1.87;;;6.60;95.40;;;6.42;66.34;94813.09;4991166;28;20459;-59
2021/12/30 07:15:06;;;;;;;2.53;2.30;;;6.60;95.30;;;6.37;66.37;94825.69;4990076;28;20582;-59
2021/12/30 07:17:34;;;;;;;2.60;2.40;;;6.60;95.30;;;6.36;66.24;94831.84;4991062;28;20482;-61
2021/12/30 07:20:02;;;;;;;2.93;2.63;;;6.60;95.30;;;6.36;66.86;94826.63;4990846;28;20546;-60
2021/12/30 07:22:29;;;;;;;4.30;3.13;;;6.50;95.30;;;6.37;66.66;94843.97;4990184;28;20450;-58
2021/12/30 07:24:57;;;;;;;4.73;3.37;;;6.60;95.50;;;6.36;66.48;94844.09;4989649;28;20502;-60
2021/12/30 07:27:24;;;;;;;7.73;5.50;;;6.50;95.20;;;6.34;65.88;94846.81;4988966;28;20455;-60
2021/12/30 07:29:51;;;;;;;4.17;3.60;;;6.60;95.20;;;6.33;66.26;94858.22;4987274;28;20470;-58
2021/12/30 07:32:20;;;;;;;8.20;4.07;;;6.50;95.00;;;6.32;65.66;94856.56;4988243;28;20588;-60
2021/12/30 07:34:48;;;;;;;5.10;2.93;;;6.50;94.90;;;6.31;65.86;94862.72;4985421;28;20482;-59
2021/12/30 07:37:16;;;;;;;6.63;3.10;;;6.50;94.80;;;6.28;65.95;94860.34;4988955;28;20582;-63
2021/12/30 07:39:44;;;;;;;5.43;4.00;;;6.50;94.80;;;6.26;65.91;94868.28;4989728;28;20584;-61
2021/12/30 07:42:12;;;;;;;3.50;3.07;;;6.50;94.80;;;6.24;66.13;94870.19;4986386;28;20455;-59
2021/12/30 07:44:39;;;;;;;3.80;3.50;;;6.50;94.90;;;6.26;66.16;94872.69;4988348;28;21196;-59
2021/12/30 07:47:07;;;;;;;6.17;4.03;;;6.40;94.90;;;6.28;65.95;94873.41;4988902;28;20454;-59
2021/12/30 07:49:36;;;;;;;6.80;4.93;;;6.50;95.00;;;6.31;66.05;94872.34;4989565;28;20454;-59
2021/12/30 07:52:04;;;;;;;7.70;4.60;;;6.50;94.90;;;6.30;65.91;94883.72;4988600;28;21022;-61
2021/12/30 07:54:31;;;;;;;8.17;4.23;;;6.50;94.60;;;6.27;65.70;94885.63;4989997;28;20565;-61
2021/12/30 07:56:59;;;;;;;6.07;4.00;;;6.50;94.60;;;6.27;65.39;94885.63;4989627;28;20490;-60
2021/12/30 07:59:26;;;;;;;5.13;3.40;;;6.40;94.60;;;6.28;65.41;94886.47;4987745;28;20459;-61
2021/12/30 08:01:53;;;;;;;10.17;3.40;;;6.40;94.60;;;6.29;64.69;94895.97;4987279;28;20459;-60
2021/12/30 08:04:21;;;;;;;2.70;2.50;;;6.50;94.30;;;6.28;64.96;94896.91;4989100;28;20454;-60
2021/12/30 08:06:50;;;;;;;3.57;3.17;;;6.40;94.40;;;6.28;64.89;94896.91;4991253;28;20558;-60
2021/12/30 08:09:17;;;;;;;3.17;2.53;;;6.50;94.40;;;6.26;64.57;94899.63;4989223;28;20513;-61
2021/12/30 08:11:44;;;;;;;3.20;2.90;;;6.50;94.20;;;6.22;64.63;94897.34;4987450;28;20479;-58
2021/12/30 08:14:12;;;;;;;7.90;4.73;;;6.40;94.20;;;6.18;64.87;94904.59;4989251;28;20453;-61
2021/12/30 08:16:39;;;;;;;7.03;4.70;;;6.40;94.20;;;6.13;65.42;94913.69;4990259;28;21031;-60
2021/12/30 08:19:07;;;;;;;6.20;4.17;;;6.30;94.20;;;6.09;64.88;94913.91;4988723;28;20501;-60
2021/12/30 08:21:35;;;;;;;9.00;5.20;;;6.30;94.30;;;6.10;64.87;94920.81;4988660;28;20492;-60
2021/12/30 08:24:04;;;;;;;10.53;6.40;;;6.30;94.30;;;6.10;64.99;94925.19;4989325;28;20907;-60
2021/12/30 08:26:31;;;;;;;11.50;6.10;;;6.30;94.40;;;6.13;65.21;94938.03;4990260;28;20492;-60
2021/12/30 08:28:59;;;;;;;13.60;7.57;;;6.30;94.60;;;6.18;65.00;94937.69;4988195;28;20458;-61
2021/12/30 08:31:26;;;;;;;13.70;7.07;;;6.30;94.30;;;6.22;65.44;94942.56;4987446;28;20956;-61
2021/12/30 08:33:54;;;;;;;9.27;6.33;;;6.40;94.60;;;6.28;65.88;94946.53;4987161;28;20454;-60
2021/12/30 08:36:21;;;;;;;14.10;7.83;;;6.40;94.60;;;6.36;65.35;94951.19;4987533;28;21010;-60
2021/12/30 08:38:48;;;;;;;10.53;6.60;;;6.50;94.40;;;6.41;65.35;94952.53;4988208;28;20455;-61
2021/12/30 08:41:17;;;;;;;19.20;9.70;;;6.60;94.40;;;6.48;64.45;94955.53;4988168;28;20589;-60
2021/12/30 08:43:44;;;;;;;17.80;9.03;;;6.60;94.10;;;6.55;64.90;94963.72;4987250;28;20501;-59
2021/12/30 08:46:12;;;;;;;12.80;7.30;;;6.70;94.30;;;6.62;64.68;94964.97;4987488;28;20566;-60
2021/12/30 08:48:40;;;;;;;11.53;6.87;;;6.80;94.30;;;6.68;64.72;94959.28;4989431;28;20462;-60
2021/12/30 08:51:07;;;;;;;7.37;5.93;;;6.80;94.20;;;6.76;65.13;94967.38;4989854;28;20462;-60
2021/12/30 08:53:40;;;;;;;10.30;6.00;;;6.90;94.20;;;6.82;64.76;94966.09;4985829;28;20459;-59
2021/12/30 08:56:08;;;;;;;13.93;6.50;;;7.00;93.90;;;6.88;64.01;94973.47;4989401;28;20533;-60
2021/12/30 08:58:37;;;;;;;7.63;5.07;;;7.00;93.80;;;6.91;64.38;94975.00;4986358;28;20552;-62
2021/12/30 09:01:04;;;;;;;11.10;6.07;;;7.00;93.70;;;6.93;63.67;94971.34;4989829;28;20735;-59
2021/12/30 09:03:31;;;;;;;6.50;4.97;;;7.10;93.30;;;6.92;63.79;94976.69;4989372;28;20534;-61
2021/12/30 09:05:59;;;;;;;13.97;4.73;;;7.10;93.50;;;6.88;64.25;94981.31;4989643;28;21010;-60
2021/12/30 09:08:26;;;;;;;6.00;4.27;;;7.00;93.30;;;6.86;63.20;94991.03;4988534;28;20846;-58
2021/12/30 09:10:53;;;;;;;8.97;4.60;;;7.00;93.00;;;6.82;63.89;94982.59;4989571;28;20475;-61
2021/12/30 09:13:22;;;;;;;7.90;5.30;;;7.00;93.10;;;6.80;63.88;94986.28;4990013;28;20462;-59
2021/12/30 09:15:51;;;;;;;5.13;4.20;;;7.00;93.10;;;6.80;63.66;94984.50;4989202;28;20814;-59
2021/12/30 09:18:18;;;;;;;9.97;5.10;;;7.00;93.20;;;6.80;63.27;94981.03;4988331;28;20504;-60
2021/12/30 09:20:45;;;;;;;8.47;4.70;;;7.00;93.10;;;6.77;63.18;94997.81;4989010;28;20480;-60
2021/12/30 09:23:15;;;;;;;12.37;5.33;;;6.90;92.90;;;6.75;63.69;94998.84;4988738;28;20466;-60
2021/12/30 09:25:42;;;;;;;9.60;6.00;;;7.00;93.00;;;6.76;63.63;94995.31;4987473;28;20478;-60
2021/12/30 09:28:12;;;;;;;9.97;6.73;;;6.90;93.10;;;6.79;63.92;95000.31;4989121;28;20968;-61
2021/12/30 09:30:40;;;;;;;13.60;6.50;;;7.00;93.10;;;6.79;63.57;94989.84;4988421;28;21033;-60
2021/12/30 09:33:09;;;;;;;17.80;8.67;;;7.00;92.90;;;6.75;63.38;94989.22;4988137;28;20800;-61
2021/12/30 09:35:36;;;;;;;14.07;6.73;;;6.90;92.80;;;6.75;63.14;94994.44;4989209;28;20474;-59
2021/12/30 09:38:03;;;;;;;13.80;8.67;;;6.90;92.70;;;6.75;63.22;94998.84;4989462;28;20497;-60
2021/12/30 09:40:30;;;;;;;10.67;6.57;;;6.90;92.80;;;6.75;62.67;95004.09;4989145;28;20473;-60
2021/12/30 09:43:01;;;;;;;10.40;6.00;;;6.90;92.60;;;6.71;62.72;95006.09;4989213;28;20450;-60
2021/12/30 09:45:29;;;;;;;11.00;6.43;;;6.90;92.60;;;6.69;62.67;95004.53;4988067;28;20557;-58
2021/12/30 09:47:58;;;;;;;6.67;3.80;;;6.80;92.50;;;6.67;62.89;95003.81;4989185;28;20900;-60
2021/12/30 09:50:29;;;;;;;9.10;5.57;;;6.80;92.60;;;6.64;63.28;95002.25;4990245;28;20458;-60
2021/12/30 09:52:57;;;;;;;10.47;5.77;;;6.80;92.80;;;6.63;63.31;95011.88;4987744;28;21010;-58
2021/12/30 09:55:25;;;;;;;12.80;6.50;;;6.80;92.80;;;6.59;63.80;95014.84;4990904;28;20478;-59
2021/12/30 09:57:53;;;;;;;5.50;3.53;;;6.80;92.80;;;6.52;63.28;95005.75;4992461;28;20482;-59
2021/12/30 10:00:20;;;;;;;3.00;2.70;;;6.70;92.60;;;6.50;62.92;95010.28;4993446;28;21014;-59
2021/12/30 10:02:48;;;;;;;4.50;3.00;;;6.70;93.00;;;6.48;63.23;95015.63;4992551;28;20467;-60
2021/12/30 10:05:17;;;;;;;2.60;2.40;;;6.70;92.40;;;6.48;63.10;95028.69;4990725;28;20470;-58
2021/12/30 10:07:46;;;;;;;4.20;2.53;;;6.70;92.50;;;6.46;63.31;95012.28;4995397;28;20462;-59
2021/12/30 10:10:30;;;;;;;2.17;1.70;;;6.70;92.40;;;6.50;63.34;95011.09;4992772;28;20470;-60
2021/12/30 10:12:58;;;;;;;2.27;2.07;;;6.70;92.70;;;6.55;63.13;95010.78;4991250;28;20454;-59
2021/12/30 10:15:28;;;;;;;4.00;2.10;;;6.70;92.80;;;6.60;63.59;95014.72;4991735;28;20835;-59
2021/12/30 10:17:57;;;;;;;5.83;2.93;;;6.80;93.00;;;6.70;63.49;95017.50;4992973;28;20768;-60
2021/12/30 10:20:27;;;;;;;7.77;2.70;;;6.80;92.90;;;6.76;63.46;95014.44;4989107;28;20473;-59
2021/12/30 10:22:57;;;;;;;2.77;2.57;;;6.90;92.80;;;6.81;62.87;95014.91;4992722;28;20445;-60
2021/12/30 10:25:30;;;;;;;1.67;1.57;;;6.90;92.50;;;6.85;62.53;95014.69;4991525;28;20474;-59
2021/12/30 10:27:58;;;;;;;1.47;1.37;;;7.00;92.50;;;6.85;62.64;95017.31;4991696;28;20455;-59
2021/12/30 10:30:33;;;;;;;1.60;1.50;;;7.00;92.10;;;6.87;62.55;95024.09;4992080;28;20576;-59
2021/12/30 10:33:16;;;;;;;1.57;1.47;;;7.00;91.90;;;6.88;61.74;95024.91;4989224;28;20449;-59
2021/12/30 10:35:44;;;;;;;3.47;2.60;;;7.00;91.90;;;6.86;61.87;95026.81;4989520;28;20478;-60